Time;durP1;ratioP1;P1;durP2;ratioP2;P2;SDS_P1;SDS_P2;PMS_P1;PMS_P2;Temp;Humidity;BMP_temperature;BMP_pressure;BME280_temperature;BME280_humidity;BME280_pressure;Samples;Min_cycle;Max_cycle;Signal;HPM_P1;HPM_P2
2021/03/25 00:02:24;;;;;;;345.63;198.07;;;;;;;;;;5096957;28;20351;-69
2021/03/25 00:04:50;;;;;;;338.50;195.55;;;;;;;;;;5097550;28;20024;-69
2021/03/25 00:07:16;;;;;;;333.25;191.70;;;;;;;;;;5094949;28;20051;-69
2021/03/25 00:09:42;;;;;;;331.13;187.15;;;;;;;;;;5095620;28;20470;-69
2021/03/25 00:12:09;;;;;;;344.63;190.65;;;;;;;;;;5096817;28;20028;-69
2021/03/25 00:14:35;;;;;;;326.00;175.73;;;;;;;;;;5111457;28;20048;-69
2021/03/25 00:17:01;;;;;;;322.33;174.52;;;;;;;;;;5117425;28;20093;-69
2021/03/25 00:19:27;;;;;;;307.90;169.95;;;;;;;;;;5098519;28;20077;-69
2021/03/25 00:21:54;;;;;;;291.35;159.90;;;;;;;;;;5098737;28;20023;-68
2021/03/25 00:24:21;;;;;;;299.48;160.52;;;;;;;;;;5116793;28;20027;-70
2021/03/25 00:26:47;;;;;;;305.05;172.80;;;;;;;;;;5116297;28;20031;-68
2021/03/25 00:29:16;;;;;;;301.20;168.77;;;;;;;;;;5116861;28;20034;-69
2021/03/25 00:31:43;;;;;;;310.77;164.68;;;;;;;;;;5098503;28;20477;-68
2021/03/25 00:34:09;;;;;;;290.05;155.00;;;;;;;;;;5098657;28;20106;-69
2021/03/25 00:36:36;;;;;;;281.75;151.60;;;;;;;;;;5116727;28;20095;-69
2021/03/25 00:39:02;;;;;;;249.52;137.88;;;;;;;;;;5116657;28;20023;-69
2021/03/25 00:41:28;;;;;;;246.38;134.60;;;;;;;;;;5116315;28;20039;-69
2021/03/25 00:43:54;;;;;;;231.15;128.25;;;;;;;;;;5116597;28;20456;-70
2021/03/25 00:46:21;;;;;;;229.20;128.00;;;;;;;;;;5098204;28;20023;-70
2021/03/25 00:48:48;;;;;;;230.57;130.20;;;;;;;;;;5115860;28;20019;-68
2021/03/25 00:51:14;;;;;;;232.30;128.65;;;;;;;;;;5116482;28;20024;-68
2021/03/25 00:53:40;;;;;;;237.77;123.93;;;;;;;;;;5116151;28;20058;-68
2021/03/25 00:56:07;;;;;;;227.00;124.13;;;;;;;;;;5116070;28;20045;-68
2021/03/25 00:58:33;;;;;;;222.98;121.95;;;;;;;;;;5116609;28;20030;-69
2021/03/25 01:01:00;;;;;;;217.73;118.40;;;;;;;;;;5116382;28;20522;-69
2021/03/25 01:03:27;;;;;;;222.98;119.32;;;;;;;;;;5097705;28;20031;-67
2021/03/25 01:05:54;;;;;;;224.20;119.13;;;;;;;;;;5097955;28;20354;-68
2021/03/25 01:08:20;;;;;;;210.68;113.47;;;;;;;;;;5116068;28;20272;-69
2021/03/25 01:10:50;;;;;;;221.32;118.63;;;;;;;;;;5115783;28;20031;-69
2021/03/25 01:13:19;;;;;;;205.85;114.18;;;;;;;;;;5115720;28;20036;-67
2021/03/25 01:15:45;;;;;;;212.05;115.35;;;;;;;;;;5097406;28;20019;-68
2021/03/25 01:18:12;;;;;;;216.75;117.30;;;;;;;;;;5116194;28;20028;-68
2021/03/25 01:20:39;;;;;;;213.73;115.53;;;;;;;;;;5115854;28;20465;-68
2021/03/25 01:23:06;;;;;;;202.75;108.50;;;;;;;;;;5115453;28;20031;-67
2021/03/25 01:25:33;;;;;;;201.85;107.15;;;;;;;;;;5115529;28;20053;-67
2021/03/25 01:28:00;;;;;;;191.10;106.53;;;;;;;;;;5115638;28;20027;-68
2021/03/25 01:30:27;;;;;;;190.90;97.97;;;;;;;;;;5097089;28;20512;-68
2021/03/25 01:32:53;;;;;;;179.75;98.07;;;;;;;;;;5115923;28;20027;-68
2021/03/25 01:35:20;;;;;;;177.48;95.90;;;;;;;;;;5115864;28;20023;-69
2021/03/25 01:37:48;;;;;;;169.05;89.70;;;;;;;;;;5114982;28;20089;-68
2021/03/25 01:40:16;;;;;;;162.35;85.25;;;;;;;;;;5115487;28;20028;-67
2021/03/25 01:42:42;;;;;;;149.80;81.13;;;;;;;;;;5097162;28;20412;-68
2021/03/25 01:45:27;;;;;;;141.03;77.20;;;;;;;;;;5096873;28;20527;-69
2021/03/25 01:47:53;;;;;;;144.57;73.90;;;;;;;;;;5114976;28;20031;-68
2021/03/25 01:50:19;;;;;;;141.35;70.75;;;;;;;;;;5096966;28;20055;-68
2021/03/25 01:52:48;;;;;;;143.77;72.75;;;;;;;;;;5114895;28;20095;-69
2021/03/25 01:55:26;;;;;;;138.68;70.03;;;;;;;;;;5115195;28;20016;-69
2021/03/25 01:57:59;;;;;;;142.55;72.70;;;;;;;;;;5115258;28;20084;-68
2021/03/25 02:00:25;;;;;;;139.23;68.93;;;;;;;;;;5116191;28;20369;-68
2021/03/25 02:03:03;;;;;;;133.82;67.30;;;;;;;;;;5115927;28;20027;-69
2021/03/25 02:05:48;;;;;;;131.52;67.32;;;;;;;;;;5116185;28;20493;-69
2021/03/25 02:08:32;;;;;;;121.53;62.17;;;;;;;;;;5097411;28;20345;-69
2021/03/25 02:11:05;;;;;;;111.93;54.15;;;;;;;;;;5114935;28;20027;-69
2021/03/25 02:13:33;;;;;;;105.70;54.65;;;;;;;;;;5114286;28;20048;-70
2021/03/25 02:16:07;;;;;;;93.63;49.75;;;;;;;;;;5096574;28;20023;-70
2021/03/25 02:18:43;;;;;;;100.85;52.20;;;;;;;;;;5114538;28;20090;-69
2021/03/25 02:21:28;;;;;;;93.85;50.72;;;;;;;;;;5096510;28;20023;-69
2021/03/25 02:24:02;;;;;;;89.57;47.85;;;;;;;;;;5114973;28;20059;-69
2021/03/25 02:26:31;;;;;;;92.93;47.15;;;;;;;;;;5114509;28;20022;-68
2021/03/25 02:29:06;;;;;;;85.38;47.72;;;;;;;;;;5096426;28;20038;-69
2021/03/25 02:31:35;;;;;;;100.68;49.28;;;;;;;;;;5114254;28;20053;-70
2021/03/25 02:34:03;;;;;;;100.00;50.25;;;;;;;;;;5114230;28;20024;-69
2021/03/25 02:36:33;;;;;;;87.63;43.42;;;;;;;;;;5096222;28;20016;-69
2021/03/25 02:39:05;;;;;;;82.00;43.05;;;;;;;;;;5096183;28;20028;-68
2021/03/25 02:41:43;;;;;;;73.18;39.47;;;;;;;;;;5095876;28;20027;-69
2021/03/25 02:44:12;;;;;;;73.45;40.22;;;;;;;;;;5114389;28;20020;-69
2021/03/25 02:46:39;;;;;;;70.28;39.03;;;;;;;;;;5113785;28;20144;-70
2021/03/25 02:49:08;;;;;;;70.82;39.05;;;;;;;;;;5114333;28;20408;-69
2021/03/25 02:51:39;;;;;;;68.07;36.95;;;;;;;;;;5114007;28;20495;-70
2021/03/25 02:54:06;;;;;;;70.40;39.30;;;;;;;;;;5095634;28;20031;-70
2021/03/25 02:56:45;;;;;;;67.25;39.38;;;;;;;;;;5113978;28;20485;-70
2021/03/25 02:59:23;;;;;;;79.53;41.03;;;;;;;;;;5114443;28;20149;-69
2021/03/25 03:01:51;;;;;;;95.15;47.72;;;;;;;;;;5095588;28;20114;-70
2021/03/25 03:04:31;;;;;;;99.60;47.63;;;;;;;;;;5114378;28;20433;-69
2021/03/25 03:07:04;;;;;;;90.90;46.30;;;;;;;;;;5096637;28;20019;-69
2021/03/25 03:09:38;;;;;;;99.05;48.75;;;;;;;;;;5095460;28;20468;-69
2021/03/25 03:12:06;;;;;;;104.68;48.22;;;;;;;;;;5114264;28;20099;-68
2021/03/25 03:14:35;;;;;;;110.35;50.17;;;;;;;;;;5095066;28;20044;-68
2021/03/25 03:17:34;;;;;;;101.35;53.05;;;;;;;;;;5099192;28;20028;-68
2021/03/25 03:20:06;;;;;;;113.25;51.03;;;;;;;;;;5062221;28;20039;-69
2021/03/25 03:22:33;;;;;;;107.20;51.30;;;;;;;;;;5118135;28;20038;-70
2021/03/25 03:24:59;;;;;;;;;;;;;;;;;;5118834;28;20398;-69
2021/03/25 03:27:34;;;;;;;93.55;47.53;;;;;;;;;;5100347;28;19990;-69
2021/03/25 03:30:02;;;;;;;99.25;49.47;;;;;;;;;;5117587;28;20027;-69
2021/03/25 03:32:28;;;;;;;91.90;48.38;;;;;;;;;;5118269;28;20413;-69
2021/03/25 03:34:57;;;;;;;97.40;48.15;;;;;;;;;;5117984;28;20019;-69
2021/03/25 03:37:28;;;;;;;96.40;49.05;;;;;;;;;;5117580;28;20020;-69
2021/03/25 03:39:55;;;;;;;99.07;49.78;;;;;;;;;;5099626;28;20019;-69
2021/03/25 03:42:22;;;;;;;95.85;49.03;;;;;;;;;;5117826;28;20098;-69
2021/03/25 03:44:50;;;;;;;95.90;48.43;;;;;;;;;;5117497;28;20463;-69
2021/03/25 03:47:18;;;;;;;88.03;46.78;;;;;;;;;;5099409;28;20301;-70
2021/03/25 03:49:50;;;;;;;78.78;44.58;;;;;;;;;;5098989;28;20469;-69
2021/03/25 03:52:19;;;;;;;83.85;46.03;;;;;;;;;;5099282;28;20036;-69
2021/03/25 03:54:48;;;;;;;84.78;48.00;;;;;;;;;;5099302;28;20057;-69
2021/03/25 03:57:20;;;;;;;75.93;42.83;;;;;;;;;;5117208;28;20048;-69
2021/03/25 03:59:58;;;;;;;76.63;40.67;;;;;;;;;;5117526;28;20030;-69
2021/03/25 04:02:24;;;;;;;72.90;40.00;;;;;;;;;;5117460;28;20024;-69
2021/03/25 04:04:59;;;;;;;72.32;41.67;;;;;;;;;;5117074;28;20020;-69
2021/03/25 04:07:28;;;;;;;71.40;41.75;;;;;;;;;;5117828;28;20028;-69
2021/03/25 04:10:03;;;;;;;72.95;39.45;;;;;;;;;;5117550;28;20061;-68
2021/03/25 04:12:31;;;;;;;67.70;38.97;;;;;;;;;;5116715;28;20376;-69
2021/03/25 04:15:20;;;;;;;67.15;38.33;;;;;;;;;;5116971;28;20048;-69
2021/03/25 04:17:48;;;;;;;71.03;38.17;;;;;;;;;;5085301;28;20036;-69
2021/03/25 04:20:20;;;;;;;74.85;38.92;;;;;;;;;;5098844;28;20054;-69
2021/03/25 04:22:53;;;;;;;77.40;42.40;;;;;;;;;;5117384;28;20044;-69
2021/03/25 04:25:26;;;;;;;84.20;43.45;;;;;;;;;;5098950;28;20024;-69
2021/03/25 04:28:12;;;;;;;99.05;47.45;;;;;;;;;;5116323;28;20023;-68
2021/03/25 04:30:44;;;;;;;80.28;42.05;;;;;;;;;;5117176;28;20023;-67
2021/03/25 04:33:11;;;;;;;91.60;43.30;;;;;;;;;;5119681;27;20012;-71
2021/03/25 04:35:37;;;;;;;88.22;45.50;;;;;;;;;;5121588;27;20042;-70
2021/03/25 04:38:03;;;;;;;89.78;47.17;;;;;;;;;;5106737;28;20028;-69
2021/03/25 04:40:31;;;;;;;84.20;43.10;;;;;;;;;;5116189;28;20016;-68
2021/03/25 04:42:57;;;;;;;;;;;;;;;;;;5098785;28;20028;-68
2021/03/25 04:45:43;;;;;;;84.32;44.53;;;;;;;;;;5120376;27;20002;-69
2021/03/25 04:48:12;;;;;;;79.13;41.07;;;;;;;;;;5107103;27;20114;-69
2021/03/25 04:50:40;;;;;;;74.10;41.40;;;;;;;;;;5123155;27;20068;-69
2021/03/25 04:53:08;;;;;;;87.90;43.28;;;;;;;;;;5105475;27;20095;-69
2021/03/25 04:55:34;;;;;;;;;;;;;;;;;;5104442;27;20030;-70
2021/03/25 04:58:02;;;;;;;120.32;56.70;;;;;;;;;;5123548;27;20284;-70
2021/03/25 05:00:29;;;;;;;148.15;70.80;;;;;;;;;;5111896;27;20372;-71
2021/03/25 05:02:56;;;;;;;136.35;66.40;;;;;;;;;;5136521;27;20026;-69
2021/03/25 05:05:26;;;;;;;113.57;58.65;;;;;;;;;;5136765;27;20487;-69
2021/03/25 05:07:56;;;;;;;103.25;53.60;;;;;;;;;;5136020;27;20023;-70
2021/03/25 05:10:51;;;;;;;79.22;42.15;;;;;;;;;;5134357;27;20027;-71
2021/03/25 05:13:20;;;;;;;74.35;39.15;;;;;;;;;;5112554;27;20047;-70
2021/03/25 05:15:47;;;;;;;75.72;38.38;;;;;;;;;;5134688;27;20048;-69
2021/03/25 05:18:15;;;;;;;60.78;35.72;;;;;;;;;;5135687;27;20046;-69
2021/03/25 05:20:42;;;;;;;55.75;33.70;;;;;;;;;;5135273;27;20019;-68
2021/03/25 05:23:23;;;;;;;61.08;35.42;;;;;;;;;;5135604;27;20026;-71
2021/03/25 05:25:56;;;;;;;67.03;35.78;;;;;;;;;;5136479;27;20019;-71
2021/03/25 05:28:22;;;;;;;71.75;40.50;;;;;;;;;;5117884;27;20110;-69
2021/03/25 05:30:51;;;;;;;75.00;45.08;;;;;;;;;;5117882;27;20023;-69
2021/03/25 05:33:18;;;;;;;74.38;43.65;;;;;;;;;;5136370;27;20026;-69
2021/03/25 05:35:46;;;;;;;80.25;47.00;;;;;;;;;;5135827;27;20023;-68
2021/03/25 05:38:13;;;;;;;89.93;51.35;;;;;;;;;;5117097;27;20041;-69
2021/03/25 05:40:57;;;;;;;88.28;49.45;;;;;;;;;;5117653;27;20020;-69
2021/03/25 05:43:33;;;;;;;86.28;48.78;;;;;;;;;;5135722;27;20023;-69
2021/03/25 05:46:22;;;;;;;86.03;49.83;;;;;;;;;;5136287;27;20047;-68
2021/03/25 05:48:50;;;;;;;80.10;46.42;;;;;;;;;;5135548;27;20030;-71
2021/03/25 05:51:25;;;;;;;97.25;52.20;;;;;;;;;;5136110;27;20050;-70
2021/03/25 05:54:10;;;;;;;87.95;52.13;;;;;;;;;;5136040;27;20016;-70
2021/03/25 05:56:36;;;;;;;109.03;56.78;;;;;;;;;;5117078;27;20027;-69
2021/03/25 05:59:06;;;;;;;112.97;62.83;;;;;;;;;;5135723;27;20023;-69
2021/03/25 06:01:38;;;;;;;127.82;69.05;;;;;;;;;;5135656;27;20048;-69
2021/03/25 06:04:23;;;;;;;142.90;73.70;;;;;;;;;;5135225;27;20488;-70
2021/03/25 06:06:59;;;;;;;156.50;87.70;;;;;;;;;;5135575;27;20026;-70
2021/03/25 06:09:28;;;;;;;151.33;83.60;;;;;;;;;;5135267;27;20031;-71
2021/03/25 06:12:05;;;;;;;159.65;82.47;;;;;;;;;;5135767;27;20027;-69
2021/03/25 06:14:50;;;;;;;151.82;76.70;;;;;;;;;;5116578;27;20104;-70
2021/03/25 06:17:16;;;;;;;153.93;75.65;;;;;;;;;;5135356;27;20027;-71
2021/03/25 06:19:49;;;;;;;138.57;74.93;;;;;;;;;;5135347;27;20059;-72
2021/03/25 06:22:38;;;;;;;120.60;65.97;;;;;;;;;;5135380;27;20024;-72
2021/03/25 06:25:21;;;;;;;113.18;61.22;;;;;;;;;;5087383;27;20054;-72
2021/03/25 06:27:47;;;;;;;100.03;55.50;;;;;;;;;;5135139;27;20102;-69
2021/03/25 06:30:19;;;;;;;98.32;51.72;;;;;;;;;;5135391;27;20472;-73
2021/03/25 06:32:55;;;;;;;72.60;43.50;;;;;;;;;;5134963;27;20023;-72
2021/03/25 06:35:27;;;;;;;72.15;38.50;;;;;;;;;;5136266;27;20016;-71
2021/03/25 06:38:06;;;;;;;73.55;37.65;;;;;;;;;;5117223;27;20031;-71
2021/03/25 06:40:37;;;;;;;70.68;39.75;;;;;;;;;;5117512;27;20106;-71
2021/03/25 06:43:10;;;;;;;77.00;42.42;;;;;;;;;;5134740;27;20094;-71
2021/03/25 06:45:39;;;;;;;86.80;45.00;;;;;;;;;;5134818;27;20027;-72
2021/03/25 06:48:22;;;;;;;92.38;45.65;;;;;;;;;;5134817;27;20027;-71
2021/03/25 06:50:50;;;;;;;72.57;41.30;;;;;;;;;;5116163;27;20460;-71
2021/03/25 06:53:21;;;;;;;68.90;39.30;;;;;;;;;;5134501;27;20027;-71
2021/03/25 06:56:07;;;;;;;63.38;35.47;;;;;;;;;;5117190;27;20372;-74
2021/03/25 06:58:37;;;;;;;62.75;35.20;;;;;;;;;;5116169;27;20110;-72
2021/03/25 07:01:11;;;;;;;61.45;37.30;;;;;;;;;;5134410;27;20026;-72
2021/03/25 07:03:38;;;;;;;59.85;33.97;;;;;;;;;;5116318;28;20019;-72
2021/03/25 07:06:05;;;;;;;56.75;31.77;;;;;;;;;;5134407;28;20023;-72
2021/03/25 07:08:32;;;;;;;52.90;31.02;;;;;;;;;;5116167;28;20496;-73
2021/03/25 07:11:04;;;;;;;54.75;30.95;;;;;;;;;;5116243;28;20031;-72
2021/03/25 07:13:40;;;;;;;50.88;29.83;;;;;;;;;;5115761;28;20104;-73
2021/03/25 07:16:10;;;;;;;44.67;29.13;;;;;;;;;;5134639;28;20022;-71
2021/03/25 07:18:55;;;;;;;47.38;28.88;;;;;;;;;;5116187;28;20039;-73
2021/03/25 07:21:25;;;;;;;43.00;24.80;;;;;;;;;;5115815;28;20028;-67
2021/03/25 07:23:53;;;;;;;42.33;23.15;;;;;;;;;;5134838;28;20026;-68
2021/03/25 07:26:19;;;;;;;;;;;;;;;;;;5135235;28;20076;-67
2021/03/25 07:28:57;;;;;;;38.55;22.95;;;;;;;;;;5115713;28;19907;-72
2021/03/25 07:31:39;;;;;;;38.10;23.90;;;;;;;;;;5116723;28;20484;-72
2021/03/25 07:34:06;;;;;;;35.95;21.45;;;;;;;;;;5115749;28;20031;-72
2021/03/25 07:36:34;;;;;;;37.80;22.77;;;;;;;;;;5116025;28;20024;-72
2021/03/25 07:39:07;;;;;;;36.58;23.70;;;;;;;;;;5115983;28;20058;-72
2021/03/25 07:41:34;;;;;;;35.10;21.55;;;;;;;;;;5133892;28;20072;-71
2021/03/25 07:44:02;;;;;;;54.58;26.75;;;;;;;;;;5115685;28;20015;-72
2021/03/25 07:46:49;;;;;;;29.92;20.38;;;;;;;;;;5115977;28;20384;-74
2021/03/25 07:49:17;;;;;;;29.73;20.52;;;;;;;;;;5115596;28;20019;-71
2021/03/25 07:51:43;;;;;;;;;;;;;;;;;;5116313;28;20023;-72
2021/03/25 07:54:30;;;;;;;27.15;16.80;;;;;;;;;;5115460;28;19910;-71
2021/03/25 07:56:57;;;;;;;;;;;;;;;;;;5117188;28;20015;-73
2021/03/25 07:59:30;;;;;;;25.55;15.60;;;;;;;;;;5116700;28;19940;-71
2021/03/25 08:01:56;;;;;;;23.45;14.02;;;;;;;;;;5116930;27;20027;-72
2021/03/25 08:04:26;;;;;;;24.90;14.45;;;;;;;;;;5119623;27;20015;-72
2021/03/25 08:07:01;;;;;;;16.58;11.38;;;;;;;;;;5138206;27;20026;-73
2021/03/25 08:09:27;;;;;;;18.17;12.90;;;;;;;;;;5119048;27;20037;-73
2021/03/25 08:11:55;;;;;;;26.80;13.73;;;;;;;;;;5119493;27;20384;-73
2021/03/25 08:14:23;;;;;;;20.30;12.48;;;;;;;;;;5119314;27;20057;-74
2021/03/25 08:16:51;;;;;;;42.03;16.10;;;;;;;;;;5137454;27;20031;-78
2021/03/25 08:19:20;;;;;;;37.80;15.80;;;;;;;;;;5119255;27;20076;-72
2021/03/25 08:22:05;;;;;;;20.90;11.02;;;;;;;;;;5119275;27;20023;-73
2021/03/25 08:24:40;;;;;;;34.55;13.63;;;;;;;;;;5118816;27;20480;-68
2021/03/25 08:27:26;;;;;;;18.35;9.63;;;;;;;;;;5119762;27;20015;-73
2021/03/25 08:30:08;;;;;;;17.77;9.38;;;;;;;;;;5118715;27;20081;-73
2021/03/25 08:32:46;;;;;;;15.90;9.27;;;;;;;;;;5137455;27;20019;-68
2021/03/25 08:35:18;;;;;;;13.75;8.73;;;;;;;;;;5137125;27;20410;-72
2021/03/25 08:37:47;;;;;;;24.10;11.65;;;;;;;;;;5118745;27;20461;-72
2021/03/25 08:40:25;;;;;;;38.55;23.38;;;;;;;;;;5137547;27;20027;-73
2021/03/25 08:42:54;;;;;;;31.90;20.63;;;;;;;;;;5118736;27;20023;-71
2021/03/25 08:45:23;;;;;;;17.55;10.85;;;;;;;;;;5136865;27;20015;-72
2021/03/25 08:48:12;;;;;;;96.15;58.78;;;;;;;;;;5136758;27;20019;-71
2021/03/25 08:50:39;;;;;;;33.40;20.42;;;;;;;;;;5136598;27;20066;-72
2021/03/25 08:53:05;;;;;;;;;;;;;;;;;;5119014;27;20157;-74
2021/03/25 08:55:39;;;;;;;29.17;19.83;;;;;;;;;;5118626;27;20369;-72
2021/03/25 08:58:14;;;;;;;68.53;44.03;;;;;;;;;;5137166;27;20076;-71
2021/03/25 09:00:41;;;;;;;19.15;11.13;;;;;;;;;;5137061;27;20023;-71
2021/03/25 09:03:07;;;;;;;;;;;;;;;;;;5137438;27;20031;-72
2021/03/25 09:05:33;;;;;;;20.85;10.48;;;;;;;;;;5118227;27;19998;-71
2021/03/25 09:08:01;;;;;;;8.98;5.90;;;;;;;;;;5118326;27;20038;-73
2021/03/25 09:10:33;;;;;;;12.20;4.72;;;;;;;;;;5137019;27;20106;-73
2021/03/25 09:13:00;;;;;;;18.27;8.27;;;;;;;;;;5135841;27;20422;-73
2021/03/25 09:15:26;;;;;;;17.25;7.72;;;;;;;;;;5137234;27;20031;-72
2021/03/25 09:17:54;;;;;;;20.65;9.27;;;;;;;;;;5136565;27;20020;-72
2021/03/25 09:20:29;;;;;;;12.52;6.90;;;;;;;;;;5117878;27;20023;-73
2021/03/25 09:22:57;;;;;;;9.82;5.72;;;;;;;;;;5118901;27;20057;-72
2021/03/25 09:25:32;;;;;;;13.07;6.97;;;;;;;;;;5117785;27;20417;-72
2021/03/25 09:27:58;;;;;;;13.43;7.72;;;;;;;;;;5136328;27;20031;-73
2021/03/25 09:30:24;;;;;;;16.98;8.50;;;;;;;;;;5136565;27;20023;-72
2021/03/25 09:32:50;;;;;;;18.95;8.90;;;;;;;;;;5136257;27;20048;-72
2021/03/25 09:35:36;;;;;;;14.70;9.70;;;;;;;;;;5135983;27;20361;-72
2021/03/25 09:38:03;;;;;;;18.88;9.13;;;;;;;;;;5117743;27;20023;-71
2021/03/25 09:40:46;;;;;;;16.10;8.45;;;;;;;;;;5117291;27;20026;-72
2021/03/25 09:43:16;;;;;;;22.23;9.70;;;;;;;;;;5136101;27;20030;-73
2021/03/25 09:45:43;;;;;;;14.00;8.60;;;;;;;;;;5117896;27;20023;-71
2021/03/25 09:48:17;;;;;;;13.18;6.45;;;;;;;;;;5117419;27;20023;-73
2021/03/25 09:51:00;;;;;;;11.52;6.95;;;;;;;;;;5117218;27;20030;-72
2021/03/25 09:53:26;;;;;;;13.45;6.18;;;;;;;;;;5136211;27;20084;-73
2021/03/25 09:56:16;;;;;;;8.82;5.95;;;;;;;;;;5135572;27;20095;-71
2021/03/25 09:58:46;;;;;;;9.10;6.60;;;;;;;;;;5103769;27;20434;-72
2021/03/25 10:01:31;;;;;;;11.73;7.22;;;;;;;;;;5118177;27;20050;-74
2021/03/25 10:03:58;;;;;;;10.52;6.75;;;;;;;;;;5117178;27;20365;-71
2021/03/25 10:06:43;;;;;;;9.20;6.68;;;;;;;;;;5117178;27;20076;-72
2021/03/25 10:09:09;;;;;;;13.43;9.90;;;;;;;;;;5135625;27;20122;-72
2021/03/25 10:11:50;;;;;;;11.43;6.47;;;;;;;;;;5135395;27;20054;-72
2021/03/25 10:14:35;;;;;;;7.68;5.55;;;;;;;;;;5135637;27;20047;-72
2021/03/25 10:17:01;;;;;;;7.70;4.97;;;;;;;;;;5117847;27;20031;-71
2021/03/25 10:19:45;;;;;;;9.60;7.47;;;;;;;;;;5116568;27;20054;-72
2021/03/25 10:22:18;;;;;;;10.23;5.70;;;;;;;;;;5117006;27;20051;-72
2021/03/25 10:24:51;;;;;;;12.05;7.30;;;;;;;;;;5134795;27;20023;-73
2021/03/25 10:27:23;;;;;;;12.93;6.97;;;;;;;;;;5116664;27;20023;-73
2021/03/25 10:29:49;;;;;;;7.13;5.93;;;;;;;;;;5134886;27;20102;-74
2021/03/25 10:32:27;;;;;;;8.93;6.80;;;;;;;;;;5116506;27;20023;-72
2021/03/25 10:34:55;;;;;;;8.75;5.95;;;;;;;;;;5116638;27;20025;-72
2021/03/25 10:37:43;;;;;;;11.38;6.90;;;;;;;;;;5117052;27;20022;-72
2021/03/25 10:40:10;;;;;;;8.20;5.70;;;;;;;;;;5134765;27;20026;-71
2021/03/25 10:42:38;;;;;;;9.05;5.13;;;;;;;;;;5116878;27;20019;-74
2021/03/25 10:45:27;;;;;;;10.70;6.90;;;;;;;;;;5116610;27;20418;-73
2021/03/25 10:47:57;;;;;;;15.07;6.68;;;;;;;;;;5134693;27;20449;-74
2021/03/25 10:50:45;;;;;;;11.05;6.15;;;;;;;;;;5134870;27;20023;-72
2021/03/25 10:53:12;;;;;;;15.20;8.38;;;;;;;;;;5116214;28;20019;-72
2021/03/25 10:55:41;;;;;;;9.65;6.70;;;;;;;;;;5134829;27;20362;-72
2021/03/25 10:58:07;;;;;;;9.35;5.93;;;;;;;;;;5116425;28;20381;-70
2021/03/25 11:00:38;;;;;;;12.53;7.50;;;;;;;;;;5116112;28;20088;-70
2021/03/25 11:03:18;;;;;;;9.20;6.38;;;;;;;;;;5116391;27;20457;-70
2021/03/25 11:05:51;;;;;;;13.07;7.95;;;;;;;;;;5116283;28;20071;-69
2021/03/25 11:08:30;;;;;;;14.20;9.00;;;;;;;;;;5115921;28;20087;-70
2021/03/25 11:10:56;;;;;;;16.48;10.38;;;;;;;;;;5135043;28;20011;-70
2021/03/25 11:13:25;;;;;;;27.40;14.80;;;;;;;;;;5116017;28;20051;-68
2021/03/25 11:16:14;;;;;;;16.85;7.95;;;;;;;;;;5115883;28;20031;-69
2021/03/25 11:18:59;;;;;;;9.20;6.07;;;;;;;;;;5116210;28;20019;-69
2021/03/25 11:21:25;;;;;;;13.75;7.90;;;;;;;;;;5134271;28;20023;-69
2021/03/25 11:23:58;;;;;;;7.53;5.70;;;;;;;;;;5134273;28;20023;-71
2021/03/25 11:26:25;;;;;;;11.65;5.88;;;;;;;;;;5134517;28;20108;-70
2021/03/25 11:28:51;;;;;;;8.05;6.15;;;;;;;;;;5115717;28;20058;-70
2021/03/25 11:31:24;;;;;;;8.55;6.43;;;;;;;;;;5134213;28;20079;-75
2021/03/25 11:33:51;;;;;;;11.32;6.35;;;;;;;;;;5134419;28;20417;-74
2021/03/25 11:36:36;;;;;;;9.98;5.78;;;;;;;;;;5116109;27;20027;-69
2021/03/25 11:39:09;;;;;;;7.00;5.85;;;;;;;;;;5120017;27;20045;-68
2021/03/25 11:41:36;;;;;;;14.05;6.72;;;;;;;;;;5139046;27;20061;-71
2021/03/25 11:44:04;;;;;;;9.43;5.53;;;;;;;;;;5138152;27;20019;-71
2021/03/25 11:46:45;;;;;;;9.90;6.43;;;;;;;;;;5138620;27;20050;-75
2021/03/25 11:49:34;;;;;;;17.73;13.10;;;;;;;;;;5120058;27;20388;-71
2021/03/25 11:52:02;;;;;;;10.95;8.50;;;;;;;;;;5118499;27;20030;-79
2021/03/25 11:54:35;;;;;;;8.82;5.85;;;;;;;;;;5119760;27;20034;-79
2021/03/25 11:57:09;;;;;;;8.13;4.95;;;;;;;;;;5119419;27;20148;-73
2021/03/25 11:59:37;;;;;;;8.27;5.35;;;;;;;;;;5138165;27;20106;-74
2021/03/25 12:02:22;;;;;;;5.85;5.28;;;;;;;;;;5119602;27;20023;-72
2021/03/25 12:04:51;;;;;;;8.57;6.43;;;;;;;;;;5119227;27;20023;-72
2021/03/25 12:07:22;;;;;;;8.07;5.63;;;;;;;;;;5119564;27;20610;-71
2021/03/25 12:09:59;;;;;;;8.85;6.22;;;;;;;;;;5119489;27;20167;-72
2021/03/25 12:12:25;;;;;;;13.70;8.05;;;;;;;;;;5119423;27;20480;-71
2021/03/25 12:14:51;;;;;;;8.15;5.45;;;;;;;;;;5138299;27;20054;-72
2021/03/25 12:17:18;;;;;;;6.25;4.13;;;;;;;;;;5119024;27;20057;-73
2021/03/25 12:19:44;;;;;;;6.75;5.07;;;;;;;;;;5137807;27;20453;-74
2021/03/25 12:22:11;;;;;;;4.57;4.13;;;;;;;;;;5120141;27;20387;-72
2021/03/25 12:24:37;;;;;;;4.93;4.18;;;;;;;;;;5118872;27;20028;-73
2021/03/25 12:27:04;;;;;;;6.63;5.03;;;;;;;;;;5137610;27;20012;-72
2021/03/25 12:29:30;;;;;;;5.87;4.67;;;;;;;;;;5137734;27;20030;-73
2021/03/25 12:31:57;;;;;;;9.18;5.97;;;;;;;;;;5137164;27;20468;-72
2021/03/25 12:34:23;;;;;;;8.75;6.25;;;;;;;;;;5119196;27;20533;-73
2021/03/25 12:36:50;;;;;;;4.97;4.20;;;;;;;;;;5137390;27;20076;-73
2021/03/25 12:39:19;;;;;;;14.80;7.63;;;;;;;;;;5118639;27;20304;-72
2021/03/25 12:41:46;;;;;;;6.15;4.22;;;;;;;;;;5119191;27;20407;-73
2021/03/25 12:44:12;;;;;;;;;;;;;;;;;;5118976;27;20049;-72
2021/03/25 12:46:39;;;;;;;10.35;6.85;;;;;;;;;;5136941;27;19926;-71
2021/03/25 12:49:05;;;;;;;5.32;4.55;;;;;;;;;;5136761;27;20034;-72
2021/03/25 12:51:31;;;;;;;8.27;5.20;;;;;;;;;;5136840;27;20027;-73
2021/03/25 12:53:57;;;;;;;4.13;3.60;;;;;;;;;;5118315;27;20050;-72
2021/03/25 12:56:25;;;;;;;5.03;4.32;;;;;;;;;;5118610;27;20050;-71
2021/03/25 12:58:51;;;;;;;5.88;4.88;;;;;;;;;;5137236;27;20541;-72
2021/03/25 13:01:22;;;;;;;7.25;4.88;;;;;;;;;;5136922;27;20106;-73
2021/03/25 13:03:49;;;;;;;12.35;6.13;;;;;;;;;;5118545;27;20559;-71
2021/03/25 13:06:15;;;;;;;6.47;5.32;;;;;;;;;;5118112;27;20034;-71
2021/03/25 13:08:42;;;;;;;6.68;4.75;;;;;;;;;;5137085;27;20027;-72
2021/03/25 13:11:09;;;;;;;5.75;4.80;;;;;;;;;;5137793;27;20015;-73
2021/03/25 13:13:36;;;;;;;9.20;5.00;;;;;;;;;;5136342;27;20050;-72
2021/03/25 13:16:02;;;;;;;10.33;7.23;;;;;;;;;;5136617;27;20034;-73
2021/03/25 13:18:28;;;;;;;8.48;6.22;;;;;;;;;;5118730;27;20251;-69
2021/03/25 13:20:54;;;;;;;6.55;5.90;;;;;;;;;;5115905;27;20027;-69
2021/03/25 13:23:24;;;;;;;9.77;5.68;;;;;;;;;;5115829;27;20092;-70
2021/03/25 13:25:51;;;;;;;14.70;9.98;;;;;;;;;;5117000;27;20028;-72
2021/03/25 13:28:20;;;;;;;8.52;6.20;;;;;;;;;;5135317;27;20125;-70
2021/03/25 13:30:46;;;;;;;9.02;7.40;;;;;;;;;;5116251;27;20027;-71
2021/03/25 13:33:13;;;;;;;10.00;6.55;;;;;;;;;;5117057;27;20108;-70
2021/03/25 13:35:40;;;;;;;12.15;6.93;;;;;;;;;;5115647;27;20384;-72
2021/03/25 13:38:06;;;;;;;;;;;;;;;;;;5134375;27;20127;-70
2021/03/25 13:40:33;;;;;;;10.18;6.00;;;;;;;;;;5116932;27;20380;-71
2021/03/25 13:42:59;;;;;;;;;;;;;;;;;;5116922;27;20046;-72
2021/03/25 13:45:26;;;;;;;9.27;6.97;;;;;;;;;;5134671;27;20448;-73
2021/03/25 13:47:52;;;;;;;9.48;7.13;;;;;;;;;;5116686;27;20110;-71
2021/03/25 13:50:21;;;;;;;11.23;8.45;;;;;;;;;;5116393;27;20468;-72
2021/03/25 13:52:47;;;;;;;9.88;7.47;;;;;;;;;;5134365;27;20118;-71
2021/03/25 13:55:21;;;;;;;14.82;8.52;;;;;;;;;;5134766;27;20085;-71
2021/03/25 13:57:48;;;;;;;11.85;7.00;;;;;;;;;;5116645;27;20515;-72
2021/03/25 14:00:14;;;;;;;11.93;8.02;;;;;;;;;;5133516;27;20015;-72
2021/03/25 14:02:40;;;;;;;15.05;8.10;;;;;;;;;;5116121;27;20049;-72
2021/03/25 14:05:06;;;;;;;11.18;6.63;;;;;;;;;;5116355;27;20019;-73
2021/03/25 14:07:33;;;;;;;9.60;7.13;;;;;;;;;;5134236;27;20107;-71
2021/03/25 14:09:59;;;;;;;11.45;8.27;;;;;;;;;;5134084;27;20318;-71
2021/03/25 14:12:25;;;;;;;9.93;7.38;;;;;;;;;;5115890;27;20425;-72
2021/03/25 14:14:51;;;;;;;15.07;7.15;;;;;;;;;;5111986;28;20130;-72
2021/03/25 14:17:17;;;;;;;9.00;7.00;;;;;;;;;;5113843;28;20030;-72
2021/03/25 14:19:43;;;;;;;9.48;7.28;;;;;;;;;;5112500;28;20062;-72
2021/03/25 14:22:09;;;;;;;11.48;7.95;;;;;;;;;;5112084;28;20441;-73
2021/03/25 14:24:39;;;;;;;19.63;13.65;;;;;;;;;;5113514;28;20049;-72
2021/03/25 14:27:05;;;;;;;10.93;8.00;;;;;;;;;;5114237;28;20016;-71
2021/03/25 14:29:31;;;;;;;11.13;7.18;;;;;;;;;;5112901;28;20145;-72
2021/03/25 14:31:57;;;;;;;7.78;5.93;;;;;;;;;;5112306;28;20027;-72
2021/03/25 14:34:23;;;;;;;15.07;8.65;;;;;;;;;;5112469;28;20016;-72
2021/03/25 14:36:50;;;;;;;11.40;5.97;;;;;;;;;;5113994;28;20559;-71
2021/03/25 14:39:16;;;;;;;9.32;6.22;;;;;;;;;;5113882;28;20030;-72
2021/03/25 14:41:42;;;;;;;18.88;12.70;;;;;;;;;;5114517;28;20062;-71
2021/03/25 14:44:08;;;;;;;14.52;11.02;;;;;;;;;;5114096;28;20016;-70
2021/03/25 14:46:34;;;;;;;18.10;9.77;;;;;;;;;;5114128;28;20481;-68